»·PEaware :: N357XT L52-L88

N357XT :: L52-L88

FLIGHT INFORMATION

Flight Status: Arrived
Operator: Privately registered:
United States
More flights under this callsign
Pilot: Eric W. (23219)
Aircraft: PIPER PA-28 CHEROKEE ARCHER
(PA28)
More flights by this aircraft type
Origin: L52 Oceano Co
United States
Destination: L88 New Cuyama
United States
More flights between these airports :: More routes between these airports
Route:
File this flight plan on PilotEdge
Remarks: CAT-01
Altitude:
(Current/Filed)
4,000ft
Speed:
(Current/Filed)
130kts
Departed: 29-Jan-19 11:37 PM
Arrived: 30-Jan-19 12:31 AM
Distance/Time
Traveled:
47nm/0:54
Distance/Time
To Go:
Arrived

Flight Plot

Page will automatically refresh every two minutes.


Map Options




Map Legend


Flown Route
Filed Route
Departure Airport
Arrival Airport
Navaid (VOR, NDB)
Fix

Horizontal Profiles

Position Reports

Time Latitude Longitude Heading Altitude Ground
Speed
29-Jan-19 23:30 35.103727 -120.624029 217 17ft 0kts
29-Jan-19 23:31 35.103726 -120.624030 217 17ft 0kts
29-Jan-19 23:32 35.103724 -120.624032 217 17ft 0kts
29-Jan-19 23:33 35.103722 -120.624033 217 17ft 0kts
29-Jan-19 23:34 35.103721 -120.624035 217 17ft 0kts
29-Jan-19 23:35 35.103071 -120.625105 119 17ft 7kts
29-Jan-19 23:36 35.096567 -120.604364 75 556ft 93kts
29-Jan-19 23:37 35.104364 -120.574500 69 1612ft 89kts
29-Jan-19 23:38 35.114962 -120.546739 62 2557ft 91kts
29-Jan-19 23:39 35.123576 -120.518006 70 3469ft 89kts
29-Jan-19 23:40 35.132642 -120.488703 64 4062ft 103kts
29-Jan-19 23:41 35.141658 -120.466541 67 4053ft 106kts
29-Jan-19 23:46 35.103503 -120.624066 34 17ft 0kts
29-Jan-19 23:47 35.103240 -120.625159 202 17ft 6kts
29-Jan-19 23:48 35.098246 -120.606817 61 581ft 82kts
29-Jan-19 23:49 35.112107 -120.583783 47 1496ft 84kts
29-Jan-19 23:50 35.130441 -120.564322 45 2438ft 89kts
29-Jan-19 23:51 35.147358 -120.542051 42 3350ft 89kts
29-Jan-19 23:52 35.165479 -120.520456 39 3978ft 100kts
29-Jan-19 23:53 35.184732 -120.495809 46 4078ft 105kts
29-Jan-19 23:54 35.204173 -120.468935 46 4079ft 105kts
29-Jan-19 23:55 35.223847 -120.442049 46 4069ft 106kts
29-Jan-19 23:56 35.243546 -120.415102 46 4066ft 106kts
29-Jan-19 23:57 35.262951 -120.388708 46 4053ft 103kts
29-Jan-19 23:58 35.282080 -120.362773 46 4050ft 102kts
29-Jan-19 23:59 35.301139 -120.336990 45 4050ft 102kts
30-Jan-19 00:00 35.320290 -120.311337 45 4050ft 102kts
30-Jan-19 00:01 35.339559 -120.285695 45 4050ft 102kts
30-Jan-19 00:02 35.358966 -120.260246 45 4050ft 102kts
30-Jan-19 00:03 35.378438 -120.234730 45 4050ft 102kts
30-Jan-19 00:04 35.390841 -120.204991 83 4173ft 90kts
30-Jan-19 00:05 35.393119 -120.170766 83 4129ft 104kts
30-Jan-19 00:06 35.396343 -120.134988 80 4053ft 108kts
30-Jan-19 00:07 35.388313 -120.102490 137 4014ft 107kts
30-Jan-19 00:08 35.367069 -120.077231 136 4007ft 106kts
30-Jan-19 00:09 35.344951 -120.053335 142 4006ft 105kts
30-Jan-19 00:10 35.319472 -120.035358 153 4006ft 106kts
30-Jan-19 00:11 35.292927 -120.019041 149 4006ft 106kts
30-Jan-19 00:12 35.267811 -119.999766 146 4007ft 106kts
30-Jan-19 00:13 35.243055 -119.979932 146 4006ft 106kts
30-Jan-19 00:14 35.218056 -119.960561 148 4006ft 106kts
30-Jan-19 00:15 35.192707 -119.941648 147 4007ft 106kts
30-Jan-19 00:16 35.165775 -119.927069 160 4011ft 106kts
30-Jan-19 00:17 35.137431 -119.916134 155 4001ft 106kts
30-Jan-19 00:18 35.111685 -119.898244 145 4000ft 106kts
30-Jan-19 00:19 35.086506 -119.879275 148 4000ft 106kts
30-Jan-19 00:20 35.061785 -119.859498 142 4002ft 105kts
30-Jan-19 00:21 35.036821 -119.844160 220 3559ft 132kts
30-Jan-19 00:22 35.012121 -119.827343 145 3409ft 102kts
30-Jan-19 00:23 34.995853 -119.800708 105 3106ft 103kts
30-Jan-19 00:24 34.978439 -119.772303 130 3118ft 108kts
30-Jan-19 00:25 34.961658 -119.741514 132 3115ft 108kts
30-Jan-19 00:26 34.943807 -119.714009 118 2777ft 99kts
30-Jan-19 00:27 34.930264 -119.686640 121 2672ft 93kts
30-Jan-19 00:28 34.928001 -119.666855 312 2662ft 77kts
30-Jan-19 00:29 34.937004 -119.687257 298 2206ft 52kts
30-Jan-19 00:30 34.939747 -119.693415 23 2206ft 4kts
30-Jan-19 00:31 34.939795 -119.693390 21 2206ft 0kts
30-Jan-19 00:32 34.939798 -119.693389 21 2206ft 0kts
30-Jan-19 00:34 34.939801 -119.693387 21 2206ft 0kts
30-Jan-19 00:35 34.939804 -119.693386 21 2206ft 0kts
30-Jan-19 00:36 34.939806 -119.693385 21 2206ft 0kts
30-Jan-19 00:37 34.939806 -119.693385 21 2206ft 0kts
30-Jan-19 00:38 34.939806 -119.693385 21 2206ft 0kts
30-Jan-19 00:39 34.939806 -119.693385 21 2206ft 0kts
30-Jan-19 00:40 34.939806 -119.693385 21 2206ft 0kts
30-Jan-19 00:41 34.939806 -119.693385 21 2206ft 0kts
30-Jan-19 00:42 34.939806 -119.693385 21 2206ft 0kts
30-Jan-19 00:43 34.939806 -119.693385 21 2206ft 0kts

Navigation Log

Ident Type
Flight plan parsing failed, navigation log unavailable